KJXN/JXN METAR and TAF weather

Enter ICAO airport designator
Station Type Date Time Source
KJXN METAR 2019/06/17 12:42 UTC NOAA

KJXN 171242Z 03005KT 10SM SCT010 OVC016 15/14 A3001 RMK AO2 T01500139


Station Type Date Time Source
KJXN Decoded METAR 2019/06/17 12:42 UTC NOAA

JACKSON COUNTY-REYNOLDS, MI, United States (KJXN) 42-16N 084-28W
Jun 17, 2019 - 08:42 AM EDT / 2019.06.17 1242 UTC
Wind: from the NNE (030 degrees) at 6 MPH (5 KT):0
Visibility: 10 mile(s):0
Sky conditions: overcast
Temperature: 59.0 F (15.0 C)
Dew Point: 57.0 F (13.9 C)
Relative Humidity: 93%
Pressure (altimeter): 30.01 in. Hg (1016 hPa)
ob: KJXN 171242Z 03005KT 10SM SCT010 OVC016 15/14 A3001 RMK AO2 T01500139
cycle: 12

Station Type Date Time Source
KJXN TAF 2019/06/17 12:34 UTC NOAA

TAF KJXN 171132Z 1712/1812 05004KT 3SM BR OVC015
FM171600 08005KT 6SM BR OVC015
FM172000 06004KT P6SM OVC025
FM180000 VRB03KT P6SM BKN035
FM180900 VRB03KT 5SM BR OVC025

Example: see airport list